sensor_id;sensor_type;location;lat;lon;timestamp;temperature;humidity
82039;DHT22;71610;42.628;23.378;2023-11-21T00:02:20;21.00;40.50
82039;DHT22;71610;42.628;23.378;2023-11-21T00:04:47;20.90;40.50
82039;DHT22;71610;42.628;23.378;2023-11-21T00:07:13;21.00;40.50
82039;DHT22;71610;42.628;23.378;2023-11-21T00:09:40;20.90;40.50
82039;DHT22;71610;42.628;23.378;2023-11-21T00:12:07;20.90;40.40
82039;DHT22;71610;42.628;23.378;2023-11-21T00:14:36;20.90;40.40
82039;DHT22;71610;42.628;23.378;2023-11-21T00:17:02;21.00;40.50
82039;DHT22;71610;42.628;23.378;2023-11-21T00:19:28;20.90;40.40
82039;DHT22;71610;42.628;23.378;2023-11-21T00:21:54;21.00;40.40
82039;DHT22;71610;42.628;23.378;2023-11-21T00:24:19;20.90;40.30
82039;DHT22;71610;42.628;23.378;2023-11-21T00:26:45;20.90;40.30
82039;DHT22;71610;42.628;23.378;2023-11-21T00:29:14;20.90;40.30
82039;DHT22;71610;42.628;23.378;2023-11-21T00:31:39;20.90;40.30
82039;DHT22;71610;42.628;23.378;2023-11-21T00:34:05;20.90;40.20
82039;DHT22;71610;42.628;23.378;2023-11-21T00:36:31;20.90;40.30
82039;DHT22;71610;42.628;23.378;2023-11-21T00:38:58;20.90;40.20
82039;DHT22;71610;42.628;23.378;2023-11-21T00:41:24;20.90;40.10
82039;DHT22;71610;42.628;23.378;2023-11-21T00:43:53;20.90;40.20
82039;DHT22;71610;42.628;23.378;2023-11-21T00:46:19;20.90;40.10
82039;DHT22;71610;42.628;23.378;2023-11-21T00:48:45;20.90;41.20
82039;DHT22;71610;42.628;23.378;2023-11-21T00:51:10;20.90;40.10
82039;DHT22;71610;42.628;23.378;2023-11-21T00:53:36;20.90;40.10
82039;DHT22;71610;42.628;23.378;2023-11-21T00:56:02;20.90;40.10
82039;DHT22;71610;42.628;23.378;2023-11-21T00:58:28;20.90;41.20
82039;DHT22;71610;42.628;23.378;2023-11-21T01:00:54;20.90;40.00
82039;DHT22;71610;42.628;23.378;2023-11-21T01:03:20;20.90;40.00
82039;DHT22;71610;42.628;23.378;2023-11-21T01:05:46;20.90;40.00
82039;DHT22;71610;42.628;23.378;2023-11-21T01:08:11;20.90;39.90
82039;DHT22;71610;42.628;23.378;2023-11-21T01:10:37;20.90;40.00
82039;DHT22;71610;42.628;23.378;2023-11-21T01:13:03;20.90;39.90
82039;DHT22;71610;42.628;23.378;2023-11-21T01:15:33;20.90;39.90
82039;DHT22;71610;42.628;23.378;2023-11-21T01:17:59;20.90;39.80
82039;DHT22;71610;42.628;23.378;2023-11-21T01:20:25;20.90;39.80
82039;DHT22;71610;42.628;23.378;2023-11-21T01:22:53;20.90;39.80
82039;DHT22;71610;42.628;23.378;2023-11-21T01:25:19;20.90;39.80
82039;DHT22;71610;42.628;23.378;2023-11-21T01:27:46;20.80;39.80
82039;DHT22;71610;42.628;23.378;2023-11-21T01:30:13;20.90;39.80
82039;DHT22;71610;42.628;23.378;2023-11-21T01:32:39;20.80;39.80
82039;DHT22;71610;42.628;23.378;2023-11-21T01:35:05;20.90;39.80
82039;DHT22;71610;42.628;23.378;2023-11-21T01:37:35;20.80;39.80
82039;DHT22;71610;42.628;23.378;2023-11-21T01:40:01;20.80;39.80
82039;DHT22;71610;42.628;23.378;2023-11-21T01:42:27;20.80;39.80
82039;DHT22;71610;42.628;23.378;2023-11-21T01:44:55;20.80;39.80
82039;DHT22;71610;42.628;23.378;2023-11-21T01:47:20;20.80;39.80
82039;DHT22;71610;42.628;23.378;2023-11-21T01:49:46;20.80;39.80
82039;DHT22;71610;42.628;23.378;2023-11-21T01:52:13;20.80;39.80
82039;DHT22;71610;42.628;23.378;2023-11-21T01:54:39;20.80;39.70
82039;DHT22;71610;42.628;23.378;2023-11-21T01:57:05;20.80;39.70
82039;DHT22;71610;42.628;23.378;2023-11-21T01:59:36;20.80;40.80
82039;DHT22;71610;42.628;23.378;2023-11-21T02:02:03;20.80;39.70
82039;DHT22;71610;42.628;23.378;2023-11-21T02:04:33;20.80;39.70
82039;DHT22;71610;42.628;23.378;2023-11-21T02:07:00;20.80;39.60
82039;DHT22;71610;42.628;23.378;2023-11-21T02:09:26;20.80;39.60
82039;DHT22;71610;42.628;23.378;2023-11-21T02:11:56;20.80;39.60
82039;DHT22;71610;42.628;23.378;2023-11-21T02:14:24;20.80;39.60
82039;DHT22;71610;42.628;23.378;2023-11-21T02:16:53;20.80;39.60
82039;DHT22;71610;42.628;23.378;2023-11-21T02:19:20;20.80;39.60
82039;DHT22;71610;42.628;23.378;2023-11-21T02:21:52;20.80;39.60
82039;DHT22;71610;42.628;23.378;2023-11-21T02:24:21;20.80;39.60
82039;DHT22;71610;42.628;23.378;2023-11-21T02:26:48;20.80;39.50
82039;DHT22;71610;42.628;23.378;2023-11-21T02:29:14;20.80;39.50
82039;DHT22;71610;42.628;23.378;2023-11-21T02:31:43;20.80;39.60
82039;DHT22;71610;42.628;23.378;2023-11-21T02:34:15;20.80;39.50
82039;DHT22;71610;42.628;23.378;2023-11-21T02:36:42;20.80;39.50
82039;DHT22;71610;42.628;23.378;2023-11-21T02:39:08;20.80;39.50
82039;DHT22;71610;42.628;23.378;2023-11-21T02:41:34;20.80;39.50
82039;DHT22;71610;42.628;23.378;2023-11-21T02:44:00;20.80;39.40
82039;DHT22;71610;42.628;23.378;2023-11-21T02:46:26;20.80;39.40
82039;DHT22;71610;42.628;23.378;2023-11-21T02:48:52;20.80;39.40
82039;DHT22;71610;42.628;23.378;2023-11-21T02:51:21;20.80;39.40
82039;DHT22;71610;42.628;23.378;2023-11-21T02:53:48;20.80;39.40
82039;DHT22;71610;42.628;23.378;2023-11-21T02:56:14;20.80;39.40
82039;DHT22;71610;42.628;23.378;2023-11-21T02:58:44;20.80;39.30
82039;DHT22;71610;42.628;23.378;2023-11-21T03:01:09;20.80;39.30
82039;DHT22;71610;42.628;23.378;2023-11-21T03:03:39;20.70;39.20
82039;DHT22;71610;42.628;23.378;2023-11-21T03:06:06;20.70;39.20
82039;DHT22;71610;42.628;23.378;2023-11-21T03:08:32;20.70;39.30
82039;DHT22;71610;42.628;23.378;2023-11-21T03:10:58;20.70;39.20
82039;DHT22;71610;42.628;23.378;2023-11-21T03:13:24;20.70;39.20
82039;DHT22;71610;42.628;23.378;2023-11-21T03:15:49;20.70;39.20
82039;DHT22;71610;42.628;23.378;2023-11-21T03:18:16;20.70;39.20
82039;DHT22;71610;42.628;23.378;2023-11-21T03:20:43;20.70;39.20
82039;DHT22;71610;42.628;23.378;2023-11-21T03:23:12;20.70;39.20
82039;DHT22;71610;42.628;23.378;2023-11-21T03:25:37;20.70;39.20
82039;DHT22;71610;42.628;23.378;2023-11-21T03:28:03;20.70;39.10
82039;DHT22;71610;42.628;23.378;2023-11-21T03:30:29;20.70;39.20
82039;DHT22;71610;42.628;23.378;2023-11-21T03:32:55;20.70;39.20
82039;DHT22;71610;42.628;23.378;2023-11-21T03:35:22;20.70;39.20
82039;DHT22;71610;42.628;23.378;2023-11-21T03:37:47;20.70;39.10
82039;DHT22;71610;42.628;23.378;2023-11-21T03:40:13;20.70;39.10
82039;DHT22;71610;42.628;23.378;2023-11-21T03:42:39;20.70;39.10
82039;DHT22;71610;42.628;23.378;2023-11-21T03:45:08;20.70;39.10
82039;DHT22;71610;42.628;23.378;2023-11-21T03:47:34;20.70;39.00
82039;DHT22;71610;42.628;23.378;2023-11-21T03:50:00;20.70;39.00
82039;DHT22;71610;42.628;23.378;2023-11-21T03:52:26;20.70;39.00
82039;DHT22;71610;42.628;23.378;2023-11-21T03:54:53;20.70;39.00
82039;DHT22;71610;42.628;23.378;2023-11-21T03:57:20;20.70;38.90
82039;DHT22;71610;42.628;23.378;2023-11-21T03:59:46;20.70;38.90
82039;DHT22;71610;42.628;23.378;2023-11-21T04:02:12;20.70;38.90
82039;DHT22;71610;42.628;23.378;2023-11-21T04:04:38;20.70;38.90
82039;DHT22;71610;42.628;23.378;2023-11-21T04:07:05;20.70;38.90
82039;DHT22;71610;42.628;23.378;2023-11-21T04:09:30;20.70;38.90
82039;DHT22;71610;42.628;23.378;2023-11-21T04:11:56;20.70;38.90
82039;DHT22;71610;42.628;23.378;2023-11-21T04:14:22;20.70;38.90
82039;DHT22;71610;42.628;23.378;2023-11-21T04:16:48;20.70;40.00
82039;DHT22;71610;42.628;23.378;2023-11-21T04:19:14;20.70;38.80
82039;DHT22;71610;42.628;23.378;2023-11-21T04:21:41;20.70;38.90
82039;DHT22;71610;42.628;23.378;2023-11-21T04:24:07;20.70;38.90
82039;DHT22;71610;42.628;23.378;2023-11-21T04:26:32;20.70;38.90
82039;DHT22;71610;42.628;23.378;2023-11-21T04:28:58;20.70;38.90
82039;DHT22;71610;42.628;23.378;2023-11-21T04:31:24;20.70;38.90
82039;DHT22;71610;42.628;23.378;2023-11-21T04:33:49;20.70;38.90
82039;DHT22;71610;42.628;23.378;2023-11-21T04:36:15;20.70;39.00
82039;DHT22;71610;42.628;23.378;2023-11-21T04:38:41;20.70;39.00
82039;DHT22;71610;42.628;23.378;2023-11-21T04:41:07;20.70;38.90
82039;DHT22;71610;42.628;23.378;2023-11-21T04:43:33;20.70;39.00
82039;DHT22;71610;42.628;23.378;2023-11-21T04:45:59;20.70;39.00
82039;DHT22;71610;42.628;23.378;2023-11-21T04:48:25;20.70;39.00
82039;DHT22;71610;42.628;23.378;2023-11-21T04:50:51;20.70;39.00
82039;DHT22;71610;42.628;23.378;2023-11-21T04:53:17;20.70;39.00
82039;DHT22;71610;42.628;23.378;2023-11-21T04:55:43;20.70;39.00
82039;DHT22;71610;42.628;23.378;2023-11-21T04:58:09;20.70;39.00
82039;DHT22;71610;42.628;23.378;2023-11-21T05:00:36;20.70;39.00
82039;DHT22;71610;42.628;23.378;2023-11-21T05:03:03;20.70;39.00
82039;DHT22;71610;42.628;23.378;2023-11-21T05:05:29;20.70;38.90
82039;DHT22;71610;42.628;23.378;2023-11-21T05:07:58;20.70;38.90
82039;DHT22;71610;42.628;23.378;2023-11-21T05:10:23;20.80;39.00
82039;DHT22;71610;42.628;23.378;2023-11-21T05:12:49;20.70;39.00
82039;DHT22;71610;42.628;23.378;2023-11-21T05:15:17;20.80;39.10
82039;DHT22;71610;42.628;23.378;2023-11-21T05:17:44;20.70;38.90
82039;DHT22;71610;42.628;23.378;2023-11-21T05:20:11;20.80;39.00
82039;DHT22;71610;42.628;23.378;2023-11-21T05:22:39;20.80;39.00
82039;DHT22;71610;42.628;23.378;2023-11-21T05:25:05;20.80;39.00
82039;DHT22;71610;42.628;23.378;2023-11-21T05:27:33;20.80;38.80
82039;DHT22;71610;42.628;23.378;2023-11-21T05:29:59;20.80;39.10
82039;DHT22;71610;42.628;23.378;2023-11-21T05:32:25;20.80;39.60
82039;DHT22;71610;42.628;23.378;2023-11-21T05:34:51;20.80;40.30
82039;DHT22;71610;42.628;23.378;2023-11-21T05:37:17;20.80;40.80
82039;DHT22;71610;42.628;23.378;2023-11-21T05:39:43;20.80;41.00
82039;DHT22;71610;42.628;23.378;2023-11-21T05:42:09;20.80;40.80
82039;DHT22;71610;42.628;23.378;2023-11-21T05:44:41;20.80;40.50
82039;DHT22;71610;42.628;23.378;2023-11-21T05:47:07;20.80;40.30
82039;DHT22;71610;42.628;23.378;2023-11-21T05:49:33;20.80;40.10
82039;DHT22;71610;42.628;23.378;2023-11-21T05:52:00;20.80;39.80
82039;DHT22;71610;42.628;23.378;2023-11-21T05:54:26;20.80;39.80
82039;DHT22;71610;42.628;23.378;2023-11-21T05:56:52;20.90;39.50
82039;DHT22;71610;42.628;23.378;2023-11-21T05:59:18;20.80;39.10
82039;DHT22;71610;42.628;23.378;2023-11-21T06:01:43;20.80;39.00
82039;DHT22;71610;42.628;23.378;2023-11-21T06:04:11;20.90;39.10
82039;DHT22;71610;42.628;23.378;2023-11-21T06:06:38;20.90;39.40
82039;DHT22;71610;42.628;23.378;2023-11-21T06:09:04;20.90;39.60
82039;DHT22;71610;42.628;23.378;2023-11-21T06:11:31;20.90;39.80
82039;DHT22;71610;42.628;23.378;2023-11-21T06:13:57;20.90;39.80
82039;DHT22;71610;42.628;23.378;2023-11-21T06:16:23;21.00;40.00
82039;DHT22;71610;42.628;23.378;2023-11-21T06:18:49;21.00;40.20
82039;DHT22;71610;42.628;23.378;2023-11-21T06:21:15;21.00;40.30
82039;DHT22;71610;42.628;23.378;2023-11-21T06:23:42;21.00;40.20
82039;DHT22;71610;42.628;23.378;2023-11-21T06:26:08;21.10;40.20
82039;DHT22;71610;42.628;23.378;2023-11-21T06:28:35;21.10;40.00
82039;DHT22;71610;42.628;23.378;2023-11-21T06:31:02;21.10;40.00
82039;DHT22;71610;42.628;23.378;2023-11-21T06:33:31;21.10;40.00
82039;DHT22;71610;42.628;23.378;2023-11-21T06:35:57;21.10;40.20
82039;DHT22;71610;42.628;23.378;2023-11-21T06:38:23;21.20;40.40
82039;DHT22;71610;42.628;23.378;2023-11-21T06:40:48;21.20;40.50
82039;DHT22;71610;42.628;23.378;2023-11-21T06:43:14;21.20;40.50
82039;DHT22;71610;42.628;23.378;2023-11-21T06:45:41;21.20;40.30
82039;DHT22;71610;42.628;23.378;2023-11-21T06:48:06;21.30;40.20
82039;DHT22;71610;42.628;23.378;2023-11-21T06:50:32;21.30;40.30
82039;DHT22;71610;42.628;23.378;2023-11-21T06:52:58;21.30;41.10
82039;DHT22;71610;42.628;23.378;2023-11-21T06:55:23;21.30;41.40
82039;DHT22;71610;42.628;23.378;2023-11-21T06:57:49;21.40;41.20
82039;DHT22;71610;42.628;23.378;2023-11-21T07:00:18;21.40;40.80
82039;DHT22;71610;42.628;23.378;2023-11-21T07:02:44;21.40;40.50
82039;DHT22;71610;42.628;23.378;2023-11-21T07:05:10;21.40;40.10
82039;DHT22;71610;42.628;23.378;2023-11-21T07:07:36;21.40;39.60
82039;DHT22;71610;42.628;23.378;2023-11-21T07:10:03;21.50;39.00
82039;DHT22;71610;42.628;23.378;2023-11-21T07:12:32;21.40;38.30
82039;DHT22;71610;42.628;23.378;2023-11-21T07:14:58;21.50;38.30
82039;DHT22;71610;42.628;23.378;2023-11-21T07:17:23;21.60;38.10
82039;DHT22;71610;42.628;23.378;2023-11-21T07:19:49;21.80;37.90
82039;DHT22;71610;42.628;23.378;2023-11-21T07:22:16;22.00;37.50
82039;DHT22;71610;42.628;23.378;2023-11-21T07:24:48;22.20;37.20
82039;DHT22;71610;42.628;23.378;2023-11-21T07:27:15;22.30;37.00
82039;DHT22;71610;42.628;23.378;2023-11-21T07:29:41;22.40;36.70
82039;DHT22;71610;42.628;23.378;2023-11-21T07:32:06;22.50;36.80
82039;DHT22;71610;42.628;23.378;2023-11-21T07:34:35;22.60;37.10
82039;DHT22;71610;42.628;23.378;2023-11-21T07:37:01;22.70;37.20
82039;DHT22;71610;42.628;23.378;2023-11-21T07:39:27;22.80;37.50
82039;DHT22;71610;42.628;23.378;2023-11-21T07:41:53;22.90;37.80
82039;DHT22;71610;42.628;23.378;2023-11-21T07:44:18;23.00;38.00
82039;DHT22;71610;42.628;23.378;2023-11-21T07:46:45;23.10;38.10
82039;DHT22;71610;42.628;23.378;2023-11-21T07:49:11;23.10;38.20
82039;DHT22;71610;42.628;23.378;2023-11-21T07:51:40;23.20;38.40
82039;DHT22;71610;42.628;23.378;2023-11-21T07:54:05;23.20;38.70
82039;DHT22;71610;42.628;23.378;2023-11-21T07:56:31;23.30;38.90
82039;DHT22;71610;42.628;23.378;2023-11-21T07:58:57;23.30;39.30
82039;DHT22;71610;42.628;23.378;2023-11-21T08:01:23;23.40;39.40
82039;DHT22;71610;42.628;23.378;2023-11-21T08:03:48;23.50;39.30
82039;DHT22;71610;42.628;23.378;2023-11-21T08:06:17;23.50;39.20
82039;DHT22;71610;42.628;23.378;2023-11-21T08:08:43;23.50;39.30
82039;DHT22;71610;42.628;23.378;2023-11-21T08:11:08;23.60;39.40
82039;DHT22;71610;42.628;23.378;2023-11-21T08:13:35;23.60;39.30
82039;DHT22;71610;42.628;23.378;2023-11-21T08:16:01;23.70;39.10
82039;DHT22;71610;42.628;23.378;2023-11-21T08:18:29;23.60;39.10
82039;DHT22;71610;42.628;23.378;2023-11-21T08:20:57;23.60;39.20
82039;DHT22;71610;42.628;23.378;2023-11-21T08:23:23;23.60;39.10
82039;DHT22;71610;42.628;23.378;2023-11-21T08:25:53;23.70;39.10
82039;DHT22;71610;42.628;23.378;2023-11-21T08:28:19;23.70;39.10
82039;DHT22;71610;42.628;23.378;2023-11-21T08:30:45;23.70;39.10
82039;DHT22;71610;42.628;23.378;2023-11-21T08:33:11;23.70;39.00
82039;DHT22;71610;42.628;23.378;2023-11-21T08:35:37;23.80;39.30
82039;DHT22;71610;42.628;23.378;2023-11-21T08:38:03;23.80;39.30
82039;DHT22;71610;42.628;23.378;2023-11-21T08:40:29;23.80;39.20
82039;DHT22;71610;42.628;23.378;2023-11-21T08:42:55;23.80;39.00
82039;DHT22;71610;42.628;23.378;2023-11-21T08:45:24;23.80;39.00
82039;DHT22;71610;42.628;23.378;2023-11-21T08:47:51;23.90;39.40
82039;DHT22;71610;42.628;23.378;2023-11-21T08:50:17;23.90;39.40
82039;DHT22;71610;42.628;23.378;2023-11-21T08:52:44;23.90;39.30
82039;DHT22;71610;42.628;23.378;2023-11-21T08:55:11;23.90;39.10
82039;DHT22;71610;42.628;23.378;2023-11-21T08:57:42;23.90;39.00
82039;DHT22;71610;42.628;23.378;2023-11-21T09:00:09;24.00;39.20
82039;DHT22;71610;42.628;23.378;2023-11-21T09:02:40;24.00;39.20
82039;DHT22;71610;42.628;23.378;2023-11-21T09:05:08;24.00;40.60
82039;DHT22;71610;42.628;23.378;2023-11-21T09:07:35;24.10;39.60
82039;DHT22;71610;42.628;23.378;2023-11-21T09:10:01;24.10;39.90
82039;DHT22;71610;42.628;23.378;2023-11-21T09:12:27;24.00;39.70
82039;DHT22;71610;42.628;23.378;2023-11-21T09:14:53;23.90;40.00
82039;DHT22;71610;42.628;23.378;2023-11-21T09:17:19;23.80;40.40
82039;DHT22;71610;42.628;23.378;2023-11-21T09:19:44;23.80;40.40
82039;DHT22;71610;42.628;23.378;2023-11-21T09:22:17;23.70;40.80
82039;DHT22;71610;42.628;23.378;2023-11-21T09:24:42;23.70;41.00
82039;DHT22;71610;42.628;23.378;2023-11-21T09:27:09;23.60;41.50
82039;DHT22;71610;42.628;23.378;2023-11-21T09:29:35;23.60;42.70
82039;DHT22;71610;42.628;23.378;2023-11-21T09:32:02;23.50;43.00
82039;DHT22;71610;42.628;23.378;2023-11-21T09:34:28;23.50;42.70
82039;DHT22;71610;42.628;23.378;2023-11-21T09:36:54;23.40;42.60
82039;DHT22;71610;42.628;23.378;2023-11-21T09:39:20;23.40;42.20
82039;DHT22;71610;42.628;23.378;2023-11-21T09:41:52;23.40;43.20
82039;DHT22;71610;42.628;23.378;2023-11-21T09:44:39;23.40;44.40
82039;DHT22;71610;42.628;23.378;2023-11-21T09:47:13;23.30;46.30
82039;DHT22;71610;42.628;23.378;2023-11-21T09:49:39;23.30;46.50
82039;DHT22;71610;42.628;23.378;2023-11-21T09:52:09;23.30;46.50
82039;DHT22;71610;42.628;23.378;2023-11-21T09:54:38;23.30;46.20
82039;DHT22;71610;42.628;23.378;2023-11-21T09:57:04;23.30;46.30
82039;DHT22;71610;42.628;23.378;2023-11-21T09:59:31;23.30;46.20
82039;DHT22;71610;42.628;23.378;2023-11-21T10:01:58;23.30;46.20
82039;DHT22;71610;42.628;23.378;2023-11-21T10:04:27;23.30;46.10
82039;DHT22;71610;42.628;23.378;2023-11-21T10:06:53;23.30;46.20
82039;DHT22;71610;42.628;23.378;2023-11-21T10:09:19;23.30;46.60
82039;DHT22;71610;42.628;23.378;2023-11-21T10:11:47;23.30;46.70
82039;DHT22;71610;42.628;23.378;2023-11-21T10:14:17;23.30;46.30
82039;DHT22;71610;42.628;23.378;2023-11-21T10:16:44;23.30;45.90
82039;DHT22;71610;42.628;23.378;2023-11-21T10:19:13;23.30;45.70
82039;DHT22;71610;42.628;23.378;2023-11-21T10:21:42;23.30;45.20
82039;DHT22;71610;42.628;23.378;2023-11-21T10:24:08;23.20;44.90
82039;DHT22;71610;42.628;23.378;2023-11-21T10:26:34;23.30;44.90
82039;DHT22;71610;42.628;23.378;2023-11-21T10:29:02;23.20;43.80
82039;DHT22;71610;42.628;23.378;2023-11-21T10:31:31;23.10;42.80
82039;DHT22;71610;42.628;23.378;2023-11-21T10:34:15;23.10;41.80
82039;DHT22;71610;42.628;23.378;2023-11-21T10:36:41;23.10;42.10
82039;DHT22;71610;42.628;23.378;2023-11-21T10:39:07;23.00;42.60
82039;DHT22;71610;42.628;23.378;2023-11-21T10:41:33;23.00;42.70
82039;DHT22;71610;42.628;23.378;2023-11-21T10:44:01;22.90;44.40
82039;DHT22;71610;42.628;23.378;2023-11-21T10:46:30;22.90;44.60
82039;DHT22;71610;42.628;23.378;2023-11-21T10:48:56;22.90;43.90
82039;DHT22;71610;42.628;23.378;2023-11-21T10:51:22;22.80;43.40
82039;DHT22;71610;42.628;23.378;2023-11-21T10:53:51;22.80;43.70
82039;DHT22;71610;42.628;23.378;2023-11-21T10:56:18;22.70;43.80
82039;DHT22;71610;42.628;23.378;2023-11-21T10:58:46;22.70;43.60
82039;DHT22;71610;42.628;23.378;2023-11-21T11:01:13;22.60;41.90
82039;DHT22;71610;42.628;23.378;2023-11-21T11:03:42;22.60;42.00
82039;DHT22;71610;42.628;23.378;2023-11-21T11:06:09;22.50;42.60
82039;DHT22;71610;42.628;23.378;2023-11-21T11:08:40;22.50;41.50
82039;DHT22;71610;42.628;23.378;2023-11-21T11:11:06;22.50;40.40
82039;DHT22;71610;42.628;23.378;2023-11-21T11:13:32;22.40;40.10
82039;DHT22;71610;42.628;23.378;2023-11-21T11:16:00;22.30;39.80
82039;DHT22;71610;42.628;23.378;2023-11-21T11:18:30;22.30;39.80
82039;DHT22;71610;42.628;23.378;2023-11-21T11:21:46;22.30;39.50
82039;DHT22;71610;42.628;23.378;2023-11-21T11:26:47;22.30;39.60
82039;DHT22;71610;42.628;23.378;2023-11-21T11:29:44;22.30;39.70
82039;DHT22;71610;42.628;23.378;2023-11-21T11:35:12;22.30;39.60
82039;DHT22;71610;42.628;23.378;2023-11-21T11:37:42;22.30;39.70
82039;DHT22;71610;42.628;23.378;2023-11-21T11:40:11;22.30;39.70
82039;DHT22;71610;42.628;23.378;2023-11-21T11:42:37;22.20;39.50
82039;DHT22;71610;42.628;23.378;2023-11-21T11:45:17;22.20;39.30
82039;DHT22;71610;42.628;23.378;2023-11-21T11:47:47;22.20;39.40
82039;DHT22;71610;42.628;23.378;2023-11-21T11:50:13;22.20;39.50
82039;DHT22;71610;42.628;23.378;2023-11-21T11:52:47;22.20;40.80
82039;DHT22;71610;42.628;23.378;2023-11-21T11:55:18;22.30;40.10
82039;DHT22;71610;42.628;23.378;2023-11-21T11:57:45;22.30;40.30
82039;DHT22;71610;42.628;23.378;2023-11-21T12:00:33;22.30;40.60
82039;DHT22;71610;42.628;23.378;2023-11-21T12:03:03;22.30;40.80
82039;DHT22;71610;42.628;23.378;2023-11-21T12:05:31;22.30;41.00
82039;DHT22;71610;42.628;23.378;2023-11-21T12:08:11;22.30;41.20
82039;DHT22;71610;42.628;23.378;2023-11-21T12:10:38;22.30;41.40
82039;DHT22;71610;42.628;23.378;2023-11-21T12:13:08;22.30;41.50
82039;DHT22;71610;42.628;23.378;2023-11-21T12:15:34;22.40;41.70
82039;DHT22;71610;42.628;23.378;2023-11-21T12:18:01;22.40;41.90
82039;DHT22;71610;42.628;23.378;2023-11-21T12:20:27;22.30;41.90
82039;DHT22;71610;42.628;23.378;2023-11-21T12:22:57;22.40;42.10
82039;DHT22;71610;42.628;23.378;2023-11-21T12:25:27;22.40;42.30
82039;DHT22;71610;42.628;23.378;2023-11-21T12:28:01;22.40;42.50
82039;DHT22;71610;42.628;23.378;2023-11-21T12:30:32;22.40;42.70
82039;DHT22;71610;42.628;23.378;2023-11-21T12:33:01;22.40;42.80
82039;DHT22;71610;42.628;23.378;2023-11-21T12:35:31;22.40;42.80
82039;DHT22;71610;42.628;23.378;2023-11-21T12:37:59;22.40;42.80
82039;DHT22;71610;42.628;23.378;2023-11-21T12:40:26;22.40;43.30
82039;DHT22;71610;42.628;23.378;2023-11-21T12:42:55;22.40;42.90
82039;DHT22;71610;42.628;23.378;2023-11-21T12:45:23;22.50;43.00
82039;DHT22;71610;42.628;23.378;2023-11-21T12:47:59;22.40;43.00
82039;DHT22;71610;42.628;23.378;2023-11-21T12:50:27;22.40;43.10
82039;DHT22;71610;42.628;23.378;2023-11-21T12:53:05;22.50;43.20
82039;DHT22;71610;42.628;23.378;2023-11-21T12:55:35;22.50;43.30
82039;DHT22;71610;42.628;23.378;2023-11-21T12:58:03;22.40;43.40
82039;DHT22;71610;42.628;23.378;2023-11-21T13:00:45;22.50;43.50
82039;DHT22;71610;42.628;23.378;2023-11-21T13:03:13;22.40;43.40
82039;DHT22;71610;42.628;23.378;2023-11-21T13:05:43;22.50;43.20
82039;DHT22;71610;42.628;23.378;2023-11-21T13:08:13;22.50;42.90
82039;DHT22;71610;42.628;23.378;2023-11-21T13:10:40;22.50;42.80
82039;DHT22;71610;42.628;23.378;2023-11-21T13:13:09;22.50;42.80
82039;DHT22;71610;42.628;23.378;2023-11-21T13:16:01;22.50;42.80
82039;DHT22;71610;42.628;23.378;2023-11-21T13:18:30;22.50;42.70
82039;DHT22;71610;42.628;23.378;2023-11-21T13:20:58;22.50;42.80
82039;DHT22;71610;42.628;23.378;2023-11-21T13:23:24;22.40;43.00
82039;DHT22;71610;42.628;23.378;2023-11-21T13:25:51;22.50;43.50
82039;DHT22;71610;42.628;23.378;2023-11-21T13:28:18;22.50;43.90
82039;DHT22;71610;42.628;23.378;2023-11-21T13:30:46;22.50;44.30
82039;DHT22;71610;42.628;23.378;2023-11-21T13:33:13;22.50;44.60
82039;DHT22;71610;42.628;23.378;2023-11-21T13:35:44;22.50;44.70
82039;DHT22;71610;42.628;23.378;2023-11-21T13:38:15;22.60;45.00
82039;DHT22;71610;42.628;23.378;2023-11-21T13:40:48;22.60;45.30
82039;DHT22;71610;42.628;23.378;2023-11-21T13:43:19;22.70;45.20
82039;DHT22;71610;42.628;23.378;2023-11-21T13:45:46;22.70;45.20
82039;DHT22;71610;42.628;23.378;2023-11-21T13:48:13;22.70;45.60
82039;DHT22;71610;42.628;23.378;2023-11-21T13:50:43;22.80;46.10
82039;DHT22;71610;42.628;23.378;2023-11-21T13:53:14;22.80;46.40
82039;DHT22;71610;42.628;23.378;2023-11-21T13:55:48;22.80;46.40
82039;DHT22;71610;42.628;23.378;2023-11-21T13:58:15;22.80;46.40
82039;DHT22;71610;42.628;23.378;2023-11-21T14:00:45;22.80;46.60
82039;DHT22;71610;42.628;23.378;2023-11-21T14:03:15;22.90;47.00
82039;DHT22;71610;42.628;23.378;2023-11-21T14:05:48;22.90;47.00
82039;DHT22;71610;42.628;23.378;2023-11-21T14:08:20;23.00;47.10
82039;DHT22;71610;42.628;23.378;2023-11-21T14:10:50;23.00;47.20
82039;DHT22;71610;42.628;23.378;2023-11-21T14:13:19;23.00;47.30
82039;DHT22;71610;42.628;23.378;2023-11-21T14:15:48;23.00;47.00
82039;DHT22;71610;42.628;23.378;2023-11-21T14:18:16;23.00;46.70
82039;DHT22;71610;42.628;23.378;2023-11-21T14:20:45;23.00;46.30
82039;DHT22;71610;42.628;23.378;2023-11-21T14:23:11;23.00;46.10
82039;DHT22;71610;42.628;23.378;2023-11-21T14:25:37;23.00;46.50
82039;DHT22;71610;42.628;23.378;2023-11-21T14:28:05;23.00;46.50
82039;DHT22;71610;42.628;23.378;2023-11-21T14:30:32;23.00;46.70
82039;DHT22;71610;42.628;23.378;2023-11-21T14:33:01;23.10;46.90
82039;DHT22;71610;42.628;23.378;2023-11-21T14:35:27;23.00;46.60
82039;DHT22;71610;42.628;23.378;2023-11-21T14:37:53;23.10;46.90
82039;DHT22;71610;42.628;23.378;2023-11-21T14:40:19;23.10;47.10
82039;DHT22;71610;42.628;23.378;2023-11-21T14:42:50;23.20;47.10
82039;DHT22;71610;42.628;23.378;2023-11-21T14:45:21;23.10;46.90
82039;DHT22;71610;42.628;23.378;2023-11-21T14:47:48;23.10;46.90
82039;DHT22;71610;42.628;23.378;2023-11-21T14:50:34;23.10;46.80
82039;DHT22;71610;42.628;23.378;2023-11-21T14:53:10;23.20;46.90
82039;DHT22;71610;42.628;23.378;2023-11-21T14:55:38;23.10;47.00
82039;DHT22;71610;42.628;23.378;2023-11-21T14:58:16;23.10;47.40
82039;DHT22;71610;42.628;23.378;2023-11-21T15:00:58;23.10;47.60
82039;DHT22;71610;42.628;23.378;2023-11-21T15:03:28;23.10;47.20
82039;DHT22;71610;42.628;23.378;2023-11-21T15:06:01;23.10;47.40
82039;DHT22;71610;42.628;23.378;2023-11-21T15:08:50;23.10;47.50
82039;DHT22;71610;42.628;23.378;2023-11-21T15:11:26;23.10;48.00
82039;DHT22;71610;42.628;23.378;2023-11-21T15:13:56;23.00;48.20
82039;DHT22;71610;42.628;23.378;2023-11-21T15:16:22;23.00;48.80
82039;DHT22;71610;42.628;23.378;2023-11-21T15:18:48;23.00;48.40
82039;DHT22;71610;42.628;23.378;2023-11-21T15:21:13;23.00;48.00
82039;DHT22;71610;42.628;23.378;2023-11-21T15:23:39;23.00;47.90
82039;DHT22;71610;42.628;23.378;2023-11-21T15:26:06;23.00;47.80